CST,Max TemperatureF,Mean TemperatureF,Min TemperatureF,Max Dew PointF,MeanDew PointF,Min DewpointF,Max Humidity, Mean Humidity, Min Humidity, Max Sea Level PressureIn, Mean Sea Level PressureIn, Min Sea Level PressureIn, Max VisibilityMiles, Mean VisibilityMiles, Min VisibilityMiles, Max Wind SpeedMPH, Mean Wind SpeedMPH, Max Gust SpeedMPH,PrecipitationIn, CloudCover, Events, WindDirDegrees
2012-2-1,45,36,28,37,33,25,87,79,67,30.12,30.06,29.93,10,8,0,6,2,,0.00,3,Fog,270
2012-2-2,38,32,26,34,30,22,87,85,81,30.34,30.26,30.15,5,2,0,7,1,,0.00,8,Fog,205
2012-2-3,41,37,33,34,32,30,87,82,73,30.45,30.41,30.37,7,3,0,13,6,21,0.00,4,Fog,41
2012-2-4,41,37,33,34,32,30,87,82,74,30.33,30.24,30.16,7,4,2,15,9,20,0.10,6,Rain,30
2012-2-5,46,34,21,33,28,18,87,75,52,30.29,30.24,30.19,10,8,0,9,3,,0.00,2,Fog,335
2012-2-6,33,28,24,28,26,21,86,83,78,30.23,30.19,30.14,7,4,0,12,5,17,0.00,7,Fog,238
2012-2-7,35,32,28,30,26,23,86,79,71,30.36,30.27,30.19,10,6,2,16,5,24,0.00,7,Snow,348
2012-2-8,35,32,28,23,19,13,80,64,42,30.39,30.36,30.32,10,10,5,10,7,16,0.00,5,Snow,304
2012-2-9,35,27,19,21,18,14,81,68,50,30.32,30.25,30.14,10,9,7,13,6,17,0.00,0,,217
2012-2-10,35,27,18,31,25,12,84,77,71,30.08,29.97,29.89,10,6,0,20,8,29,0.00,8,Snow,222
2012-2-11,22,16,10,2,-1,-4,60,49,33,30.40,30.33,30.22,10,10,10,17,12,26,0.00,0,,296
2012-2-12,35,25,15,9,5,0,62,44,28,30.37,30.32,30.26,10,10,10,15,8,22,0.00,0,,255
2012-2-13,37,25,13,21,11,5,78,54,33,30.23,30.10,29.93,10,10,5,16,4,24,0.00,3,Snow,167
2012-2-14,36,32,28,30,27,24,86,81,74,29.95,29.86,29.82,10,7,3,10,6,12,0.00,7,Snow,210
2012-2-15,41,35,29,36,31,25,87,80,75,30.09,30.04,29.97,10,7,4,12,6,17,0.00,4,,147
2012-2-16,48,40,33,36,32,20,87,72,36,30.12,30.03,29.94,10,6,0,16,4,23,0.10,4,Fog-Rain,268
2012-2-17,50,35,20,33,25,16,85,65,38,30.16,30.11,30.00,10,10,4,17,4,25,0.00,2,,189
2012-2-18,39,34,28,27,19,9,81,59,29,30.21,30.14,30.04,10,10,10,15,4,20,0.00,1,,326
2012-2-19,39,28,17,24,16,11,86,64,33,30.21,30.17,30.14,10,10,5,10,2,,0.00,0,,31
2012-2-20,42,29,16,27,20,12,86,66,43,30.29,30.21,30.07,10,10,7,16,4,20,0.00,0,,113
2012-2-21,42,38,33,36,31,25,87,77,59,29.86,29.69,29.64,10,8,2,18,9,25,0.03,7,Rain-Snow,187
2012-2-22,41,37,33,36,32,27,87,81,75,29.70,29.55,29.41,10,9,4,7,3,,0.03,4,Rain-Snow,138
2012-2-23,39,32,25,34,29,22,87,85,81,29.55,29.50,29.45,7,3,0,12,2,18,0.03,5,Fog-Rain,61
2012-2-24,36,32,29,32,28,20,87,81,68,29.91,29.61,29.36,10,6,1,22,10,33,0.04,8,Rain-Snow,294
2012-2-25,29,24,18,19,15,11,78,67,54,30.31,30.17,29.97,10,10,10,16,10,22,0.00,0,,261
2012-2-26,54,36,19,26,20,14,82,57,28,30.30,30.14,29.98,10,10,10,23,9,33,0.00,0,,143
2012-2-27,36,32,29,27,22,19,75,62,51,30.46,30.29,30.11,10,10,10,17,7,30,0.00,3,,250
2012-2-28,48,33,18,30,23,14,86,65,34,30.47,30.32,30.06,10,9,3,16,4,17,0.00,4,,110
2012-2-29,59,50,38,51,37,24,85,61,26,29.74,29.53,29.42,10,8,3,26,15,40,0.16,4,Rain-Thunderstorm,188